Time;durP1;ratioP1;P1;durP2;ratioP2;P2;SDS_P1;SDS_P2;PMS_P1;PMS_P2;Temp;Humidity;BMP_temperature;BMP_pressure;BME280_temperature;BME280_humidity;BME280_pressure;Samples;Min_cycle;Max_cycle;Signal;HPM_P1;HPM_P2
2023/02/08 00:00:29;;;;;;;32.73;14.73;;;;;;;-5.64;70.45;102127.48;1646853;87;21912;-90
2023/02/08 00:03:35;;;;;;;29.05;15.55;;;;;;;-5.70;70.48;102131.58;1648728;86;21253;-89
2023/02/08 00:06:41;;;;;;;30.37;15.70;;;;;;;-5.66;70.38;102119.50;1650125;87;21210;-90
2023/02/08 00:09:48;;;;;;;30.85;14.35;;;;;;;-5.40;69.61;102109.67;1650054;87;21240;-89
2023/02/08 00:12:54;;;;;;;25.52;14.03;;;;;;;-5.34;68.75;102123.80;1634657;87;21612;-90
2023/02/08 00:16:01;;;;;;;29.98;15.85;;;;;;;-5.52;69.06;102132.56;1650348;87;21218;-89
2023/02/08 00:19:07;;;;;;;30.43;15.78;;;;;;;-5.66;69.37;102127.95;1650557;87;21261;-89
2023/02/08 00:22:13;;;;;;;34.70;16.25;;;;;;;-5.55;69.24;102121.98;1649663;87;21221;-89
2023/02/08 00:25:19;;;;;;;29.82;14.28;;;;;;;-5.19;68.16;102127.47;1650148;87;21249;-89
2023/02/08 00:28:26;;;;;;;26.40;14.33;;;;;;;-5.32;68.38;102123.29;1650702;87;21173;-90
2023/02/08 00:31:32;;;;;;;27.42;14.25;;;;;;;-5.28;67.86;102119.66;1650142;87;21273;-90
2023/02/08 00:34:39;;;;;;;25.15;13.78;;;;;;;-5.29;67.64;102126.78;1650710;87;21241;-89
2023/02/08 00:37:45;;;;;;;29.42;14.18;;;;;;;-5.37;67.89;102127.84;1650780;87;21221;-89
2023/02/08 00:40:51;;;;;;;32.78;15.13;;;;;;;-5.44;67.71;102135.97;1650030;87;21291;-87
2023/02/08 00:43:56;;;;;;;27.40;13.93;;;;;;;-5.35;67.53;102139.38;1650803;87;21194;-87
2023/02/08 00:47:02;;;;;;;25.72;14.25;;;;;;;-5.45;67.79;102143.56;1649486;87;21252;-91
2023/02/08 00:50:08;;;;;;;27.67;15.75;;;;;;;-5.32;67.69;102145.97;1650837;87;21165;-90
2023/02/08 00:53:14;;;;;;;27.65;14.55;;;;;;;-5.24;67.42;102152.03;1649343;87;21293;-90
2023/02/08 00:56:21;;;;;;;32.65;16.32;;;;;;;-5.44;67.88;102134.64;1650101;87;21269;-89
2023/02/08 00:59:26;;;;;;;28.62;14.05;;;;;;;-5.45;67.90;102142.22;1650638;87;21189;-92
2023/02/08 01:02:32;;;;;;;28.15;15.35;;;;;;;-5.67;68.36;102147.08;1650111;85;21221;-91
2023/02/08 01:05:31;;;;;;;25.90;12.70;;;;;;;-5.73;68.64;102147.20;1650067;83;21260;-91
2023/02/08 01:08:36;;;;;;;32.28;14.40;;;;;;;-5.66;68.49;102145.28;1650121;87;21225;-90
2023/02/08 01:11:44;;;;;;;25.52;13.62;;;;;;;-5.64;68.52;102145.28;1648751;86;21858;-90
2023/02/08 01:14:50;;;;;;;26.52;13.83;;;;;;;-5.59;68.36;102149.61;1650039;87;21757;-87
2023/02/08 01:18:01;;;;;;;26.48;13.13;;;;;;;-5.56;68.18;102151.32;1649226;85;21273;-91
2023/02/08 01:21:20;;;;;;;26.73;13.98;;;;;;;-5.62;68.48;102144.33;1650750;84;21217;-91
2023/02/08 01:24:25;;;;;;;29.05;13.72;;;;;;;-5.64;68.33;102148.82;1650562;87;21248;-92
2023/02/08 01:27:31;;;;;;;30.12;14.80;;;;;;;-5.66;68.26;102151.95;1650289;87;21241;-90
2023/02/08 01:30:37;;;;;;;28.90;14.80;;;;;;;-5.76;68.36;102148.58;1650367;85;21233;-91
2023/02/08 01:33:43;;;;;;;32.65;15.08;;;;;;;-5.70;68.21;102151.58;1649172;87;21299;-90
2023/02/08 01:36:51;;;;;;;30.72;14.90;;;;;;;-5.81;68.37;102161.56;1650314;87;21233;-91
2023/02/08 01:39:57;;;;;;;29.50;15.40;;;;;;;-5.84;68.49;102157.61;1649951;87;21277;-89
2023/02/08 01:43:03;;;;;;;31.80;15.75;;;;;;;-5.89;69.00;102167.47;1648520;87;21732;-89
2023/02/08 01:46:09;;;;;;;28.40;15.63;;;;;;;-5.74;68.27;102157.44;1649872;87;21194;-88
2023/02/08 01:49:31;;;;;;;26.87;13.80;;;;;;;-5.65;67.94;102169.70;1649003;87;21890;-90
2023/02/08 01:52:39;;;;;;;28.27;14.60;;;;;;;-5.83;67.75;102167.36;1649538;87;21327;-89
2023/02/08 01:55:48;;;;;;;30.80;14.18;;;;;;;-5.75;67.67;102176.11;1649476;87;21269;-90
2023/02/08 01:58:56;;;;;;;28.83;14.50;;;;;;;-6.06;68.25;102176.68;1650005;87;21787;-90
2023/02/08 02:02:03;;;;;;;26.80;14.38;;;;;;;-5.86;68.32;102171.42;1649842;87;21233;-91
2023/02/08 02:05:10;;;;;;;29.37;14.85;;;;;;;-5.84;67.87;102185.59;1647627;86;21839;-91
2023/02/08 02:08:17;;;;;;;27.58;15.03;;;;;;;-5.97;67.96;102195.64;1645108;87;21221;-89
2023/02/08 02:11:22;;;;;;;26.45;13.53;;;;;;;-5.84;67.98;102186.92;1646401;87;21278;-90
2023/02/08 02:14:27;;;;;;;32.55;14.68;;;;;;;-5.93;67.75;102190.23;1646571;87;21201;-91
2023/02/08 02:17:33;;;;;;;28.02;14.10;;;;;;;-6.01;67.93;102188.14;1646681;87;21214;-89
2023/02/08 02:21:29;;;;;;;30.60;15.15;;;;;;;-5.99;67.77;102194.30;1646856;87;21230;-91
2023/02/08 02:25:14;;;;;;;28.27;15.68;;;;;;;-6.06;68.19;102204.66;1646681;87;21218;-89
2023/02/08 02:28:55;;;;;;;30.23;12.50;;;;;;;-5.96;68.01;102205.38;1645863;87;21253;-90
2023/02/08 02:32:34;;;;;;;35.25;17.10;;;;;;;-5.90;67.69;102207.91;1646908;87;21198;-89
2023/02/08 02:36:14;;;;;;;29.63;13.83;;;;;;;-6.06;67.59;102214.44;1642789;85;21205;-91
2023/02/08 02:39:37;;;;;;;;;;;;;;;-5.88;67.36;102222.10;1646578;86;21269;-90
2023/02/08 02:46:29;;;;;;;32.30;15.55;;;;;;;-6.09;67.69;102227.80;1640046;87;21233;-89
2023/02/08 02:49:55;;;;;;;26.55;14.18;;;;;;;-6.89;69.41;102227.56;1645700;87;21868;-90
2023/02/08 02:53:09;;;;;;;30.70;15.05;;;;;;;-6.79;69.23;102223.88;1646675;87;21639;-89
2023/02/08 02:56:30;;;;;;;27.58;13.95;;;;;;;-6.79;70.00;102233.20;1645588;87;21205;-89
2023/02/08 02:59:35;;;;;;;32.00;15.75;;;;;;;-5.46;66.31;102228.48;1647111;87;21226;-91
2023/02/08 03:02:43;;;;;;;39.25;17.48;;;;;;;-5.67;65.67;102226.18;1627476;87;21225;-90
2023/02/08 03:05:49;;;;;;;37.05;17.00;;;;;;;-6.00;65.73;102232.52;1646096;86;21265;-89
2023/02/08 03:09:18;;;;;;;37.58;16.35;;;;;;;-6.37;67.58;102240.64;1646853;85;21789;-90
2023/02/08 03:13:00;;;;;;;31.05;15.60;;;;;;;-6.46;67.83;102242.52;1646796;87;21205;-87
2023/02/08 03:16:10;;;;;;;40.55;17.35;;;;;;;-6.46;67.95;102246.97;1646888;87;21221;-89
2023/02/08 03:19:22;;;;;;;32.55;16.70;;;;;;;-6.73;68.45;102254.44;1646971;87;21739;-90
2023/02/08 03:22:41;;;;;;;37.88;16.80;;;;;;;-6.92;69.56;102254.65;1646951;87;21202;-91
2023/02/08 03:26:01;;;;;;;33.83;16.00;;;;;;;-7.18;70.63;102253.17;1647079;87;21158;-91
2023/02/08 03:29:32;;;;;;;30.15;16.70;;;;;;;-7.07;69.99;102265.90;1646489;87;21245;-90
2023/02/08 03:33:13;;;;;;;41.88;18.27;;;;;;;-7.15;70.72;102258.89;1646886;87;21794;-89
2023/02/08 03:36:32;;;;;;;34.13;17.12;;;;;;;-7.17;70.20;102256.26;1640886;87;21155;-90
2023/02/08 03:39:37;;;;;;;42.67;18.80;;;;;;;-7.34;71.18;102259.53;1640861;87;21198;-90
2023/02/08 03:42:44;;;;;;;31.52;16.65;;;;;;;-7.32;71.27;102255.09;1640499;87;21265;-90
2023/02/08 03:46:03;;;;;;;33.33;16.82;;;;;;;-7.24;70.91;102255.45;1641757;87;21776;-89
2023/02/08 03:49:12;;;;;;;35.40;17.35;;;;;;;-7.27;71.11;102273.22;1640837;87;21273;-91
2023/02/08 03:52:18;;;;;;;31.02;17.48;;;;;;;-7.10;70.41;102267.73;1641787;87;21221;-89
2023/02/08 03:55:31;;;;;;;36.10;17.62;;;;;;;-7.39;71.11;102294.59;1640251;87;21300;-91
2023/02/08 03:59:01;;;;;;;35.60;17.70;;;;;;;-7.26;70.81;102289.59;1641408;87;21268;-90
2023/02/08 04:02:11;;;;;;;32.08;17.57;;;;;;;-7.29;70.98;102293.60;1642104;87;21198;-87
2023/02/08 04:05:16;;;;;;;32.95;16.73;;;;;;;-7.18;70.46;102301.50;1641292;87;21788;-88
2023/02/08 04:08:21;;;;;;;35.95;17.45;;;;;;;-7.32;70.47;102314.92;1641750;87;21257;-90
2023/02/08 04:11:27;;;;;;;35.35;16.77;;;;;;;-7.53;71.18;102307.58;1642136;87;21237;-90
2023/02/08 04:14:33;;;;;;;30.95;15.98;;;;;;;-7.55;71.40;102310.68;1641012;87;21250;-91
2023/02/08 04:17:40;;;;;;;39.42;19.42;;;;;;;-7.58;71.68;102337.72;1640802;87;21249;-90
2023/02/08 04:20:46;;;;;;;35.30;18.07;;;;;;;-7.46;71.45;102325.22;1642188;87;21198;-91
2023/02/08 04:23:51;;;;;;;43.28;19.90;;;;;;;-7.58;71.53;102337.27;1641890;87;21404;-89
2023/02/08 04:26:57;;;;;;;38.20;19.00;;;;;;;-7.63;71.78;102335.55;1642208;85;21158;-91
2023/02/08 04:30:03;;;;;;;37.90;19.27;;;;;;;-7.59;71.72;102340.83;1641665;85;21249;-90
2023/02/08 04:33:10;;;;;;;43.48;19.10;;;;;;;-7.37;70.93;102341.55;1642357;85;21213;-89
2023/02/08 04:36:16;;;;;;;39.15;17.95;;;;;;;-7.27;70.34;102343.69;1642140;87;21222;-90
2023/02/08 04:39:23;;;;;;;34.70;15.75;;;;;;;-7.34;70.62;102351.27;1642084;87;21266;-90
2023/02/08 04:42:29;;;;;;;40.33;20.25;;;;;;;-7.65;71.17;102358.16;1642224;87;21139;-90
2023/02/08 04:45:35;;;;;;;37.05;18.05;;;;;;;-7.59;70.98;102360.77;1641240;87;21253;-90
2023/02/08 04:48:40;;;;;;;36.83;16.02;;;;;;;-7.73;71.38;102366.63;1641656;87;21289;-90
2023/02/08 04:51:46;;;;;;;33.48;15.58;;;;;;;-7.68;71.30;102369.25;1642162;87;21261;-87
2023/02/08 04:54:51;;;;;;;44.75;19.67;;;;;;;-7.64;70.90;102369.67;1641763;85;21253;-89
2023/02/08 04:57:57;;;;;;;32.95;18.65;;;;;;;-7.66;70.98;102367.03;1642181;85;21217;-89
2023/02/08 05:01:02;;;;;;;38.73;18.27;;;;;;;-7.67;70.88;102374.55;1641116;85;21244;-89
2023/02/08 05:04:08;;;;;;;31.00;15.20;;;;;;;-7.75;71.24;102377.27;1642226;87;21214;-90
2023/02/08 05:07:14;;;;;;;33.80;17.90;;;;;;;-7.78;71.28;102386.58;1640763;87;21217;-89
2023/02/08 05:10:19;;;;;;;35.68;18.62;;;;;;;-7.93;71.68;102384.47;1640221;85;21234;-90
2023/02/08 05:13:26;;;;;;;38.08;18.42;;;;;;;-7.73;71.33;102386.55;1642175;87;21221;-90
2023/02/08 05:16:31;;;;;;;33.45;17.57;;;;;;;-7.72;71.34;102386.98;1640904;86;21411;-89
2023/02/08 05:19:36;;;;;;;37.38;18.32;;;;;;;-7.83;71.18;102386.18;1642214;85;21781;-89
2023/02/08 05:22:42;;;;;;;38.25;17.02;;;;;;;-7.78;71.03;102402.98;1642131;87;21230;-89
2023/02/08 05:25:49;;;;;;;42.88;16.93;;;;;;;-7.56;70.92;102401.95;1641625;85;21205;-91
2023/02/08 05:28:55;;;;;;;34.58;16.80;;;;;;;-7.86;71.18;102406.11;1642280;85;21520;-91
2023/02/08 05:32:02;;;;;;;30.72;15.13;;;;;;;-7.79;71.15;102425.12;1642281;85;21816;-91
2023/02/08 05:35:08;;;;;;;33.63;16.12;;;;;;;-7.79;71.04;102417.16;1642064;85;21883;-89
2023/02/08 05:38:14;;;;;;;30.90;15.55;;;;;;;-7.97;71.51;102421.66;1642103;85;21803;-91
2023/02/08 05:41:20;;;;;;;35.05;16.55;;;;;;;-7.77;71.36;102416.69;1642149;87;21222;-90
2023/02/08 05:44:25;;;;;;;25.25;13.60;;;;;;;-7.80;71.27;102428.69;1642128;85;21209;-90
2023/02/08 05:47:30;;;;;;;34.23;17.32;;;;;;;-7.73;71.06;102441.03;1641958;85;21230;-89
2023/02/08 05:50:36;;;;;;;39.67;17.27;;;;;;;-7.72;70.99;102438.35;1642142;85;21796;-90
2023/02/08 05:53:42;;;;;;;32.75;16.55;;;;;;;-7.69;70.84;102441.91;1642073;85;21825;-89
2023/02/08 05:56:48;;;;;;;28.75;14.18;;;;;;;-7.51;70.52;102429.84;1641311;85;21305;-90
2023/02/08 05:59:53;;;;;;;39.90;16.80;;;;;;;-7.36;70.02;102434.16;1641923;87;21222;-87
2023/02/08 06:03:02;;;;;;;39.73;18.00;;;;;;;-7.33;69.98;102431.49;1642385;87;21776;-89
2023/02/08 06:06:13;;;;;;;36.70;15.98;;;;;;;-7.07;69.47;102440.13;1626953;87;21780;-91
2023/02/08 06:09:16;;;;;;;35.13;17.42;;;;;;;-7.09;69.34;102428.64;1634792;86;21186;-90
2023/02/08 06:12:21;;;;;;;36.35;16.75;;;;;;;-7.00;69.04;102428.56;1636019;87;21226;-89
2023/02/08 06:15:27;;;;;;;36.98;16.95;;;;;;;-6.89;69.01;102435.11;1655528;86;21253;-86
2023/02/08 06:18:31;;;;;;;28.27;13.83;;;;;;;-6.70;68.54;102443.36;1656316;86;21213;-89
2023/02/08 06:21:36;;;;;;;27.98;16.00;;;;;;;-6.67;68.18;102445.12;1656461;86;21237;-90
2023/02/08 06:24:42;;;;;;;31.33;15.28;;;;;;;-6.62;68.10;102445.08;1660227;84;21556;-89
2023/02/08 06:27:48;;;;;;;37.85;15.93;;;;;;;-6.52;68.26;102453.41;1679423;83;21245;-88
2023/02/08 06:30:58;;;;;;;30.02;15.43;;;;;;;-6.59;68.37;102467.20;1678562;83;21647;-88
2023/02/08 06:34:04;;;;;;;39.05;15.32;;;;;;;-6.44;68.09;102464.41;1669094;83;21158;-91
2023/02/08 06:37:10;;;;;;;28.85;15.15;;;;;;;-6.49;68.09;102468.03;1682599;85;21219;-88
2023/02/08 06:40:15;;;;;;;29.72;14.33;;;;;;;-6.14;68.00;102473.42;1682896;84;21237;-87
2023/02/08 06:43:21;;;;;;;96.55;28.65;;;;;;;-6.33;67.41;102473.61;1672786;85;21221;-91
2023/02/08 06:46:27;;;;;;;61.45;23.35;;;;;;;-6.32;67.81;102472.70;1672750;83;21855;-89
2023/02/08 06:49:34;;;;;;;52.20;20.48;;;;;;;-6.32;67.63;102475.83;1685932;83;22160;-89
2023/02/08 06:52:39;;;;;;;84.20;25.40;;;;;;;-5.95;67.26;102470.52;1671045;85;21220;-90
2023/02/08 06:55:47;;;;;;;73.00;26.62;;;;;;;-5.93;67.08;102482.05;1682464;83;21217;-88
2023/02/08 06:58:53;;;;;;;56.55;21.05;;;;;;;-5.76;66.33;102476.46;1680461;83;21222;-88
2023/02/08 07:01:58;;;;;;;88.85;27.17;;;;;;;-5.64;65.66;102476.77;1672994;83;21246;-88
2023/02/08 07:05:03;;;;;;;66.92;23.47;;;;;;;-5.65;65.62;102501.64;1658325;86;21133;-88
2023/02/08 07:08:10;;;;;;;66.17;21.77;;;;;;;-5.62;65.79;102491.41;1667894;84;21198;-88
2023/02/08 07:11:21;;;;;;;53.52;18.80;;;;;;;-5.24;65.54;102485.53;1684984;84;21249;-89
2023/02/08 07:14:26;;;;;;;79.95;21.52;;;;;;;-5.31;65.58;102490.09;1694416;83;21788;-87
2023/02/08 07:17:33;;;;;;;35.40;16.02;;;;;;;-5.27;64.90;102493.56;1681589;83;21228;-89
2023/02/08 07:20:38;;;;;;;73.55;25.70;;;;;;;-5.30;64.78;102505.18;1655637;86;21221;-88
2023/02/08 07:23:46;;;;;;;40.75;17.95;;;;;;;-5.31;64.82;102491.88;1635575;85;21197;-91
2023/02/08 07:26:51;;;;;;;34.65;14.98;;;;;;;-5.07;65.11;102504.84;1656096;86;21471;-89
2023/02/08 07:29:58;;;;;;;51.83;20.52;;;;;;;-5.09;65.09;102510.64;1665114;85;21279;-90
2023/02/08 07:33:04;;;;;;;29.20;14.55;;;;;;;-4.89;63.75;102511.70;1648351;85;21249;-91
2023/02/08 07:36:12;;;;;;;38.45;16.90;;;;;;;-5.05;64.23;102519.49;1641713;86;21130;-90
2023/02/08 07:39:17;;;;;;;31.05;14.35;;;;;;;-4.98;63.61;102529.19;1621415;86;21193;-90
2023/02/08 07:42:23;;;;;;;25.15;13.72;;;;;;;-4.94;64.23;102521.53;1663968;84;21249;-90
2023/02/08 07:45:32;;;;;;;37.03;15.48;;;;;;;-4.91;63.84;102527.72;1642675;85;21222;-88
2023/02/08 07:48:31;;;;;;;27.35;13.32;;;;;;;-5.06;64.48;102523.95;1629463;86;21244;-88
2023/02/08 07:51:25;;;;;;;31.05;13.43;;;;;;;-4.98;63.89;102532.73;1650571;85;21177;-87
2023/02/08 07:54:11;;;;;;;29.10;14.23;;;;;;;-4.99;64.73;102554.97;1654294;85;21211;-89
2023/02/08 07:57:04;;;;;;;26.52;13.20;;;;;;;-4.89;63.99;102534.39;1652228;85;21235;-88
2023/02/08 08:00:10;;;;;;;23.40;11.13;;;;;;;-4.68;63.86;102551.84;1643920;85;21215;-89
2023/02/08 08:03:16;;;;;;;31.02;14.23;;;;;;;-4.66;62.66;102546.02;1661489;85;21193;-88
2023/02/08 08:06:22;;;;;;;43.73;18.55;;;;;;;-4.84;63.83;102540.99;1672065;85;21183;-91
2023/02/08 08:09:28;;;;;;;31.52;14.18;;;;;;;-4.51;63.08;102536.44;1658328;84;21201;-91
2023/02/08 08:12:38;;;;;;;29.55;13.65;;;;;;;-4.49;63.14;102537.73;1650195;85;21222;-91
2023/02/08 08:15:46;;;;;;;25.60;13.53;;;;;;;-4.33;62.63;102549.03;1647875;85;21296;-86
2023/02/08 08:18:52;;;;;;;25.97;13.70;;;;;;;-4.15;61.81;102552.25;1641034;86;21209;-89
2023/02/08 08:21:58;;;;;;;24.77;13.28;;;;;;;-4.25;61.81;102546.66;1640637;86;21201;-89
2023/02/08 08:25:03;;;;;;;31.50;13.83;;;;;;;-3.98;60.92;102549.74;1617660;88;21237;-88
2023/02/08 08:28:10;;;;;;;26.02;13.88;;;;;;;-3.98;61.96;102550.62;1637399;86;22077;-89
2023/02/08 08:31:25;;;;;;;33.63;15.70;;;;;;;-4.50;61.79;102548.87;1643586;86;21293;-88
2023/02/08 08:34:30;;;;;;;46.53;20.55;;;;;;;-4.55;63.28;102554.75;1637071;86;21284;-88
2023/02/08 08:37:37;;;;;;;32.08;14.55;;;;;;;-4.12;62.59;102542.86;1644116;86;21285;-91
2023/02/08 08:40:37;;;;;;;26.07;13.55;;;;;;;-4.17;62.29;102547.86;1642450;87;21225;-86
2023/02/08 08:43:43;;;;;;;33.92;14.03;;;;;;;-4.00;61.38;102545.77;1631219;87;21211;-90
2023/02/08 08:46:49;;;;;;;26.73;15.10;;;;;;;-3.99;61.26;102530.61;1632356;86;21281;-90
2023/02/08 08:49:54;;;;;;;28.87;14.68;;;;;;;-4.05;61.69;102531.58;1646493;86;21233;-88
2023/02/08 08:53:00;;;;;;;31.52;15.15;;;;;;;-3.62;61.19;102531.64;1647337;86;21189;-87
2023/02/08 08:56:05;;;;;;;31.95;15.72;;;;;;;-3.73;61.73;102527.41;1635149;87;21221;-88
2023/02/08 08:59:17;;;;;;;32.73;14.03;;;;;;;-3.86;60.83;102540.12;1640191;86;21193;-88
2023/02/08 09:02:22;;;;;;;26.62;13.80;;;;;;;-3.73;62.07;102528.28;1647528;86;21209;-90
2023/02/08 09:05:33;;;;;;;24.98;12.60;;;;;;;-3.76;61.61;102558.24;1637768;86;21181;-88
2023/02/08 09:08:37;;;;;;;36.38;13.35;;;;;;;-3.83;61.10;102528.51;1642524;86;21193;-90
2023/02/08 09:11:44;;;;;;;19.52;10.63;;;;;;;-3.75;60.94;102537.27;1645269;86;21130;-89
2023/02/08 09:14:51;;;;;;;38.08;14.43;;;;;;;-3.45;60.44;102531.27;1714994;81;21201;-82
2023/02/08 09:17:57;;;;;;;30.57;15.78;;;;;;;-3.53;61.03;102533.22;1720218;82;21160;-80
2023/02/08 09:21:04;;;;;;;30.23;15.15;;;;;;;-3.39;60.63;102521.80;1707240;83;21805;-81
2023/02/08 09:24:11;;;;;;;27.77;11.80;;;;;;;-3.60;61.53;102514.20;1757271;81;21197;-82
2023/02/08 09:27:17;;;;;;;25.65;12.58;;;;;;;-3.35;61.76;102526.59;1749742;81;21157;-82
2023/02/08 09:30:22;;;;;;;31.60;13.40;;;;;;;-3.05;59.69;102506.77;1704865;83;21162;-81
2023/02/08 09:33:29;;;;;;;24.72;12.82;;;;;;;-3.17;59.55;102519.96;1744323;81;21236;-81
2023/02/08 09:36:40;;;;;;;28.42;13.75;;;;;;;-3.21;59.70;102523.62;1756751;80;21209;-81
2023/02/08 09:39:47;;;;;;;35.92;15.40;;;;;;;-2.65;58.56;102507.55;1738713;81;21559;-81
2023/02/08 09:42:57;;;;;;;23.18;12.82;;;;;;;-3.04;58.71;102513.41;1743025;81;21760;-82
2023/02/08 09:46:28;;;;;;;24.18;12.00;;;;;;;-3.21;59.89;102528.97;1745597;81;21165;-80
2023/02/08 09:49:40;;;;;;;22.87;12.33;;;;;;;-2.94;59.65;102516.30;1738745;81;21157;-81
2023/02/08 09:53:01;;;;;;;27.27;13.78;;;;;;;-2.66;59.07;102522.33;1742561;81;21169;-80
2023/02/08 09:56:09;;;;;;;23.83;11.63;;;;;;;-2.73;58.27;102520.70;1729345;81;21158;-81
2023/02/08 09:59:30;;;;;;;23.80;11.20;;;;;;;-2.64;59.34;102520.48;1741486;81;21212;-81
2023/02/08 10:02:38;;;;;;;28.42;14.05;;;;;;;-2.62;58.71;102503.92;1711873;81;21769;-81
2023/02/08 10:05:43;;;;;;;21.00;10.40;;;;;;;-2.41;58.32;102522.58;1738545;80;21169;-82
2023/02/08 10:08:50;;;;;;;25.62;13.28;;;;;;;-2.81;58.18;102524.05;1742455;81;21157;-80
2023/02/08 10:12:23;;;;;;;23.92;12.15;;;;;;;-2.82;58.88;102516.48;1729843;81;21145;-82
2023/02/08 10:15:41;;;;;;;20.62;11.53;;;;;;;-2.79;58.90;102514.16;1670207;84;21193;-84
2023/02/08 10:18:45;;;;;;;25.60;12.63;;;;;;;-2.52;58.98;102518.84;1707882;83;21168;-84
2023/02/08 10:21:51;;;;;;;24.65;12.80;;;;;;;-2.59;58.65;102520.81;1665821;85;21382;-81
2023/02/08 10:25:22;;;;;;;23.73;11.75;;;;;;;-2.52;58.29;102528.69;1676499;84;21174;-84
2023/02/08 10:28:26;;;;;;;21.20;11.10;;;;;;;-2.35;58.55;102534.05;1669813;84;21781;-81
2023/02/08 10:31:50;;;;;;;17.55;9.03;;;;;;;-2.72;59.65;102533.20;1667055;85;21159;-82
2023/02/08 10:35:03;;;;;;;22.25;11.45;;;;;;;-2.93;59.10;102532.78;1674098;84;21177;-81
2023/02/08 10:38:08;;;;;;;24.32;11.70;;;;;;;-2.90;59.11;102523.34;1685071;84;21825;-85
2023/02/08 10:41:14;;;;;;;27.70;14.00;;;;;;;-2.43;58.74;102541.39;1664237;84;21175;-84
2023/02/08 10:44:43;;;;;;;33.48;14.68;;;;;;;-2.26;58.85;102526.66;1680493;84;21734;-82
2023/02/08 10:48:01;;;;;;;29.52;14.13;;;;;;;-2.04;58.21;102518.94;1663811;84;21718;-82
2023/02/08 10:51:07;;;;;;;22.17;11.43;;;;;;;-2.23;58.48;102522.57;1666308;84;21255;-85
2023/02/08 10:54:12;;;;;;;24.52;13.35;;;;;;;-2.14;56.99;102516.50;1682799;84;21774;-82
2023/02/08 10:57:28;;;;;;;19.85;11.10;;;;;;;-2.17;57.05;102508.98;1704484;83;21176;-83
2023/02/08 11:00:31;;;;;;;37.73;12.63;;;;;;;-1.99;56.82;102501.78;1683354;83;21719;-81
2023/02/08 11:03:38;;;;;;;23.93;12.83;;;;;;;-2.09;57.49;102490.90;1666895;84;21210;-82
2023/02/08 11:06:48;;;;;;;27.67;13.60;;;;;;;-1.95;58.13;102498.09;1649860;85;21241;-84
2023/02/08 11:09:55;;;;;;;22.42;11.65;;;;;;;-1.76;57.67;102505.16;1677865;84;21174;-80
2023/02/08 11:13:25;;;;;;;31.37;13.53;;;;;;;-1.74;56.76;102503.34;1654083;84;21197;-84
2023/02/08 11:16:34;;;;;;;21.00;10.38;;;;;;;-1.92;57.27;102494.00;1752980;81;21287;-84
2023/02/08 11:19:46;;;;;;;22.45;11.50;;;;;;;-1.70;56.13;102494.24;1756401;80;21169;-84
2023/02/08 11:22:52;;;;;;;19.55;11.08;;;;;;;-1.78;56.71;102490.92;1746474;80;21161;-81
2023/02/08 11:25:58;;;;;;;21.23;10.43;;;;;;;-1.81;56.78;102486.52;1732471;81;21602;-82
2023/02/08 11:29:25;;;;;;;21.15;11.50;;;;;;;-1.95;57.15;102487.83;1745827;80;21821;-85
2023/02/08 11:32:34;;;;;;;28.67;12.45;;;;;;;-1.91;57.24;102501.12;1731635;82;21220;-81
2023/02/08 11:35:40;;;;;;;21.82;11.15;;;;;;;-2.00;57.17;102493.33;1752577;81;21181;-81
2023/02/08 11:38:42;;;;;;;21.80;10.65;;;;;;;-2.17;57.44;102491.56;1761956;81;21178;-85
2023/02/08 11:41:50;;;;;;;26.02;11.00;;;;;;;-2.08;57.91;102503.38;1761091;81;21307;-81
2023/02/08 11:44:55;;;;;;;18.85;10.23;;;;;;;-1.68;56.52;102490.20;1761706;81;21255;-84
2023/02/08 11:48:03;;;;;;;20.62;12.28;;;;;;;-1.57;56.38;102490.75;1761168;81;21220;-85
2023/02/08 11:51:10;;;;;;;18.32;9.50;;;;;;;-1.55;56.14;102486.23;1743304;81;21197;-81
2023/02/08 11:54:19;;;;;;;18.62;10.23;;;;;;;-1.36;55.69;102499.52;1732119;83;21881;-81
2023/02/08 11:57:27;;;;;;;;;;;;;;;-1.43;55.63;102499.27;1734591;83;21228;-83
2023/02/08 12:00:35;;;;;;;19.75;9.75;;;;;;;-1.41;55.92;102489.38;1731505;83;20605;-83
2023/02/08 12:03:47;;;;;;;19.17;10.70;;;;;;;-1.36;55.46;102495.95;1731476;83;21492;-84
2023/02/08 12:07:05;;;;;;;17.35;10.72;;;;;;;-1.32;55.85;102504.30;1733137;81;21769;-86
2023/02/08 12:10:27;;;;;;;19.42;11.00;;;;;;;-1.56;55.23;102493.38;1733386;83;21698;-82
2023/02/08 12:14:06;;;;;;;27.70;11.15;;;;;;;-1.81;56.53;102490.54;1732097;83;21190;-82
2023/02/08 12:17:42;;;;;;;19.17;11.45;;;;;;;-1.83;57.72;102496.42;1735840;82;21722;-84
2023/02/08 12:20:55;;;;;;;25.02;11.83;;;;;;;-1.66;57.60;102501.28;1732821;81;21204;-82
2023/02/08 12:24:14;;;;;;;20.90;9.88;;;;;;;-1.38;56.79;102504.03;1733088;83;21516;-84
2023/02/08 12:27:34;;;;;;;19.15;10.20;;;;;;;-1.31;55.87;102508.77;1732614;83;21200;-81
2023/02/08 12:30:53;;;;;;;15.70;9.20;;;;;;;-1.18;55.91;102511.94;1731693;82;21157;-81
2023/02/08 12:34:18;;;;;;;16.37;9.58;;;;;;;-1.04;56.59;102505.67;1731457;82;21207;-85
2023/02/08 12:41:24;;;;;;;18.35;10.25;;;;;;;-1.43;56.37;102522.09;1731401;83;21189;-85
2023/02/08 12:45:14;;;;;;;15.95;9.38;;;;;;;-1.47;56.38;102524.44;1731368;83;21556;-82
2023/02/08 12:48:49;;;;;;;18.35;10.38;;;;;;;-1.51;57.65;102524.58;1731508;83;21169;-81
2023/02/08 12:52:22;;;;;;;18.52;10.43;;;;;;;-1.51;57.12;102526.79;1732117;82;21848;-80
2023/02/08 12:55:40;;;;;;;21.73;11.15;;;;;;;-1.46;57.15;102533.38;1733070;83;21160;-85
2023/02/08 12:59:02;;;;;;;22.30;11.65;;;;;;;-1.36;57.26;102527.70;1733412;83;21637;-82
2023/02/08 13:02:21;;;;;;;20.30;11.45;;;;;;;-1.21;56.90;102540.25;1732397;83;21174;-84
2023/02/08 13:05:28;;;;;;;19.30;10.93;;;;;;;-1.36;56.78;102535.77;1731477;81;21216;-84
2023/02/08 13:08:49;;;;;;;19.35;10.78;;;;;;;-1.49;56.86;102528.11;1733495;83;21204;-81
2023/02/08 13:12:00;;;;;;;24.92;11.80;;;;;;;-1.33;57.05;102530.74;1732609;83;21778;-84
2023/02/08 13:15:28;;;;;;;18.25;10.70;;;;;;;-1.19;56.36;102527.64;1732994;83;21189;-85
2023/02/08 13:18:43;;;;;;;21.90;11.20;;;;;;;-1.45;57.55;102516.36;1730918;82;21200;-82
2023/02/08 13:21:49;;;;;;;26.65;11.83;;;;;;;-1.32;57.40;102521.75;1761368;81;21239;-85
2023/02/08 13:24:56;;;;;;;24.90;12.30;;;;;;;-1.34;57.17;102518.25;1765584;81;21184;-85
2023/02/08 13:28:14;;;;;;;21.77;11.80;;;;;;;-1.53;57.82;102518.38;1768926;81;21196;-85
2023/02/08 13:31:22;;;;;;;23.12;12.20;;;;;;;-1.62;58.47;102514.16;1770068;81;21778;-82
2023/02/08 13:34:46;;;;;;;;;;;;;;;-1.68;58.46;102534.01;1773620;81;21196;-86
2023/02/08 13:37:58;;;;;;;25.70;12.65;;;;;;;-1.61;58.08;102520.81;1769928;81;20191;-85
2023/02/08 13:41:16;;;;;;;20.25;10.98;;;;;;;-1.55;58.19;102531.86;1770325;81;21156;-81
2023/02/08 13:44:29;;;;;;;27.00;11.20;;;;;;;-1.60;58.23;102528.40;1770303;81;21188;-82
2023/02/08 13:47:40;;;;;;;20.95;11.15;;;;;;;-1.83;58.71;102532.64;1769902;81;21733;-85
2023/02/08 13:50:56;;;;;;;23.35;12.33;;;;;;;-1.76;58.95;102533.34;1770395;81;22136;-84
2023/02/08 13:54:12;;;;;;;19.77;11.28;;;;;;;-1.37;58.63;102525.05;1770411;81;21255;-81
2023/02/08 13:57:59;;;;;;;28.87;10.90;;;;;;;-1.84;59.55;102525.49;1771086;81;21246;-86
2023/02/08 14:01:08;;;;;;;20.82;10.50;;;;;;;-1.92;59.59;102538.26;1766224;81;21251;-82
2023/02/08 14:04:21;;;;;;;17.90;10.45;;;;;;;-1.93;60.02;102534.26;1771490;81;21149;-85
2023/02/08 14:07:35;;;;;;;21.70;11.43;;;;;;;-1.87;59.92;102528.75;1771603;81;21177;-85
2023/02/08 14:10:47;;;;;;;20.43;10.30;;;;;;;-1.82;59.76;102534.86;1772301;81;21157;-86
2023/02/08 14:14:02;;;;;;;20.27;10.08;;;;;;;-1.90;60.01;102518.09;1772004;81;21153;-82
2023/02/08 14:17:31;;;;;;;28.50;10.90;;;;;;;-1.91;60.04;102533.31;1770201;81;21173;-84
2023/02/08 14:20:43;;;;;;;26.02;10.58;;;;;;;-1.90;59.91;102539.09;1724936;83;21166;-81
2023/02/08 14:23:49;;;;;;;22.73;11.83;;;;;;;-1.84;60.40;102530.86;1707152;84;21754;-81
2023/02/08 14:26:54;;;;;;;31.87;10.63;;;;;;;-1.68;60.47;102540.72;1725047;83;21200;-84
2023/02/08 14:30:24;;;;;;;25.15;11.70;;;;;;;-2.07;61.03;102542.67;1707978;84;21165;-82
2023/02/08 14:33:46;;;;;;;23.73;11.12;;;;;;;-2.21;61.47;102535.45;1737292;82;21781;-81